createdAt,value
2018-11-07T00:00:40.393Z,0.00
2018-11-07T00:01:40.382Z,0.00
2018-11-07T00:02:40.381Z,0.00
2018-11-07T00:03:40.364Z,0.00
2018-11-07T00:04:40.354Z,0.00
2018-11-07T00:05:40.347Z,0.00
2018-11-07T00:06:40.337Z,0.00
2018-11-07T00:07:40.388Z,0.00
2018-11-07T00:08:40.320Z,0.00
2018-11-07T00:09:40.311Z,0.00
2018-11-07T00:10:40.301Z,0.00
2018-11-07T00:11:40.293Z,0.00
2018-11-07T00:12:40.286Z,0.00
2018-11-07T00:13:40.276Z,0.00
2018-11-07T00:14:40.267Z,0.00
2018-11-07T00:15:40.257Z,0.00
2018-11-07T00:16:40.450Z,0.00
2018-11-07T00:17:40.240Z,0.00
2018-11-07T00:18:40.230Z,0.00
2018-11-07T00:19:40.221Z,0.00
2018-11-07T00:20:40.212Z,0.00
2018-11-07T00:21:40.204Z,0.00
2018-11-07T00:22:40.197Z,0.00
2018-11-07T00:23:40.185Z,0.00
2018-11-07T00:24:40.181Z,0.00
2018-11-07T00:25:40.167Z,0.00
2018-11-07T00:26:40.159Z,0.00
2018-11-07T00:27:40.151Z,0.00
2018-11-07T00:28:40.140Z,0.00
2018-11-07T00:29:40.133Z,0.00
2018-11-07T00:30:40.121Z,0.00
2018-11-07T00:31:40.112Z,0.00
2018-11-07T00:32:40.104Z,0.00
2018-11-07T00:33:40.096Z,0.00
2018-11-07T00:34:40.085Z,0.00
2018-11-07T00:35:40.077Z,0.00
2018-11-07T00:36:40.069Z,0.00
2018-11-07T00:37:40.065Z,0.00
2018-11-07T00:38:40.058Z,0.00
2018-11-07T00:39:40.041Z,0.00
2018-11-07T00:40:40.034Z,0.00
2018-11-07T00:41:40.025Z,0.00
2018-11-07T00:42:40.025Z,0.00
2018-11-07T00:43:40.006Z,0.00
2018-11-07T00:44:39.998Z,0.00
2018-11-07T00:45:39.989Z,0.00
2018-11-07T00:46:39.979Z,0.00
2018-11-07T00:47:39.970Z,0.00
2018-11-07T00:48:40.212Z,0.00
2018-11-07T00:49:39.953Z,0.00
2018-11-07T00:50:39.947Z,0.00
2018-11-07T00:51:39.935Z,0.00
2018-11-07T00:52:39.925Z,0.00
2018-11-07T00:53:39.916Z,0.00
2018-11-07T00:54:39.907Z,0.00
2018-11-07T00:55:39.897Z,0.00
2018-11-07T00:56:39.887Z,0.00
2018-11-07T00:57:39.880Z,0.00
2018-11-07T00:58:39.870Z,0.00
2018-11-07T00:59:39.861Z,0.00
2018-11-07T01:00:39.852Z,0.00
2018-11-07T01:01:39.845Z,0.00
2018-11-07T01:02:39.833Z,0.00
2018-11-07T01:03:39.827Z,0.00
2018-11-07T01:04:39.816Z,0.00
2018-11-07T01:05:39.807Z,0.00
2018-11-07T01:06:39.800Z,0.00
2018-11-07T01:07:39.788Z,0.00
2018-11-07T01:08:39.778Z,0.00
2018-11-07T01:09:39.866Z,0.00
2018-11-07T01:10:39.761Z,0.00
2018-11-07T01:11:39.751Z,0.00
2018-11-07T01:12:39.743Z,0.00
2018-11-07T01:13:39.736Z,0.00
2018-11-07T01:14:39.724Z,0.00
2018-11-07T01:15:39.713Z,0.00
2018-11-07T01:16:39.767Z,0.00
2018-11-07T01:17:39.697Z,0.00
2018-11-07T01:18:39.685Z,0.00
2018-11-07T01:19:39.928Z,0.00
2018-11-07T01:20:39.669Z,0.00
2018-11-07T01:21:39.660Z,0.00
2018-11-07T01:22:39.651Z,0.00
2018-11-07T01:23:39.641Z,0.00
2018-11-07T01:24:39.631Z,0.00
2018-11-07T01:25:39.623Z,0.00
2018-11-07T01:26:39.612Z,0.00
2018-11-07T01:27:39.604Z,0.00
2018-11-07T01:28:39.603Z,0.00
2018-11-07T01:29:39.588Z,0.00
2018-11-07T01:30:39.579Z,0.00
2018-11-07T01:31:39.567Z,0.00
2018-11-07T01:32:39.558Z,0.00
2018-11-07T01:33:39.549Z,0.00
2018-11-07T01:34:39.539Z,0.00
2018-11-07T01:35:39.533Z,0.00
2018-11-07T01:36:39.520Z,0.00
2018-11-07T01:37:39.511Z,0.00
2018-11-07T01:38:39.504Z,0.00
2018-11-07T01:39:39.497Z,0.00
2018-11-07T01:40:39.483Z,0.00
2018-11-07T01:41:39.479Z,0.00
2018-11-07T01:42:39.466Z,0.00
2018-11-07T01:43:39.455Z,0.00
2018-11-07T01:44:39.444Z,0.00
2018-11-07T01:45:39.437Z,0.00
2018-11-07T01:46:39.426Z,0.00
2018-11-07T01:47:39.417Z,0.00
2018-11-07T01:48:39.410Z,0.00
2018-11-07T01:49:39.650Z,0.00
2018-11-07T01:50:39.388Z,0.00
2018-11-07T01:51:39.380Z,0.00
2018-11-07T01:52:39.370Z,0.00
2018-11-07T01:53:39.363Z,0.00
2018-11-07T01:54:39.353Z,0.00
2018-11-07T01:55:39.344Z,0.00
2018-11-07T01:56:39.332Z,0.00
2018-11-07T01:57:39.324Z,0.00
2018-11-07T01:58:39.314Z,0.00
2018-11-07T01:59:39.305Z,0.00
2018-11-07T02:00:39.295Z,0.00
2018-11-07T02:01:39.288Z,0.00
2018-11-07T02:02:39.279Z,0.00
2018-11-07T02:03:39.268Z,0.00
2018-11-07T02:04:39.260Z,0.00
2018-11-07T02:05:39.254Z,0.00
2018-11-07T02:06:39.239Z,0.00
2018-11-07T02:07:39.235Z,0.00
2018-11-07T02:08:39.227Z,0.00
2018-11-07T02:09:39.213Z,0.00
2018-11-07T02:10:39.203Z,0.00
2018-11-07T02:11:39.194Z,0.00
2018-11-07T02:12:39.190Z,0.00
2018-11-07T02:13:39.177Z,0.00
2018-11-07T02:14:39.167Z,0.00
2018-11-07T02:15:39.164Z,0.00
2018-11-07T02:16:39.154Z,0.00
2018-11-07T02:17:39.140Z,0.00
2018-11-07T02:18:39.130Z,0.00
2018-11-07T02:19:39.371Z,0.00
2018-11-07T02:20:39.112Z,0.00
2018-11-07T02:21:39.106Z,0.00
2018-11-07T02:22:39.096Z,0.00
2018-11-07T02:23:39.085Z,0.00
2018-11-07T02:24:39.075Z,0.00
2018-11-07T02:25:39.068Z,0.00
2018-11-07T02:26:39.056Z,0.00
2018-11-07T02:27:39.052Z,0.00
2018-11-07T02:28:39.041Z,0.00
2018-11-07T02:29:39.029Z,0.00
2018-11-07T02:30:39.019Z,0.00
2018-11-07T02:31:39.010Z,0.00
2018-11-07T02:32:39.001Z,0.00
2018-11-07T02:33:38.995Z,0.00
2018-11-07T02:34:38.985Z,0.00
2018-11-07T02:35:38.973Z,0.00
2018-11-07T02:36:38.978Z,0.00
2018-11-07T02:37:38.954Z,0.00
2018-11-07T02:38:38.949Z,0.00
2018-11-07T02:39:38.936Z,0.00
2018-11-07T02:40:38.926Z,0.00
2018-11-07T02:41:38.996Z,0.00
2018-11-07T02:42:38.907Z,0.00
2018-11-07T02:43:38.898Z,0.00
2018-11-07T02:44:38.888Z,0.00
2018-11-07T02:45:38.879Z,0.00
2018-11-07T02:46:38.871Z,0.00
2018-11-07T02:47:38.885Z,0.00
2018-11-07T02:48:38.850Z,0.00
2018-11-07T02:49:38.841Z,0.00
2018-11-07T02:50:39.082Z,0.00
2018-11-07T02:51:38.824Z,0.00
2018-11-07T02:52:38.819Z,0.00
2018-11-07T02:53:38.949Z,0.00
2018-11-07T02:54:38.793Z,0.00
2018-11-07T02:55:38.787Z,0.00
2018-11-07T02:56:38.776Z,0.00
2018-11-07T02:57:38.766Z,0.00
2018-11-07T02:58:38.756Z,0.00
2018-11-07T02:59:38.747Z,0.00
2018-11-07T03:00:38.741Z,0.00
2018-11-07T03:01:38.731Z,0.00
2018-11-07T03:02:38.717Z,0.00
2018-11-07T03:03:38.709Z,0.00
2018-11-07T03:04:38.704Z,0.00
2018-11-07T03:05:38.690Z,0.00
2018-11-07T03:06:38.680Z,0.00
2018-11-07T03:07:38.672Z,0.00
2018-11-07T03:08:38.661Z,0.00
2018-11-07T03:09:38.653Z,0.00
2018-11-07T03:10:38.719Z,0.00
2018-11-07T03:11:38.636Z,0.00
2018-11-07T03:12:38.623Z,0.00
2018-11-07T03:13:38.614Z,0.00
2018-11-07T03:14:38.607Z,0.00
2018-11-07T03:15:38.595Z,0.00
2018-11-07T03:16:38.586Z,0.00
2018-11-07T03:17:38.576Z,0.00
2018-11-07T03:18:38.566Z,0.00
2018-11-07T03:19:38.560Z,0.00
2018-11-07T03:20:38.550Z,0.00
2018-11-07T03:21:38.788Z,0.00
2018-11-07T03:22:38.528Z,0.00
2018-11-07T03:23:38.520Z,0.00
2018-11-07T03:24:38.511Z,0.00
2018-11-07T03:25:38.501Z,0.00
2018-11-07T03:26:38.493Z,0.00
2018-11-07T03:27:38.481Z,0.00
2018-11-07T03:28:38.475Z,0.00
2018-11-07T03:29:38.464Z,0.00
2018-11-07T03:30:38.460Z,0.00
2018-11-07T03:31:38.445Z,0.00
2018-11-07T03:32:38.436Z,0.00
2018-11-07T03:33:38.425Z,0.00
2018-11-07T03:34:38.414Z,0.00
2018-11-07T03:35:38.406Z,0.00
2018-11-07T03:36:38.397Z,0.00
2018-11-07T03:37:38.388Z,0.00
2018-11-07T03:38:38.377Z,0.00
2018-11-07T03:39:38.426Z,0.00
2018-11-07T03:40:38.359Z,0.00
2018-11-07T03:41:38.349Z,0.00
2018-11-07T03:42:38.338Z,0.00
2018-11-07T03:43:38.332Z,0.00
2018-11-07T03:44:38.320Z,0.00
2018-11-07T03:45:38.311Z,0.00
2018-11-07T03:46:38.302Z,0.00
2018-11-07T03:47:38.291Z,0.00
2018-11-07T03:48:38.282Z,0.00
2018-11-07T03:49:38.273Z,0.00
2018-11-07T03:50:38.263Z,0.00
2018-11-07T03:51:38.503Z,0.00
2018-11-07T03:52:38.249Z,0.00
2018-11-07T03:53:38.234Z,0.00
2018-11-07T03:54:38.223Z,0.00
2018-11-07T03:55:38.213Z,0.00
2018-11-07T03:56:38.205Z,0.00
2018-11-07T03:57:38.199Z,0.00
2018-11-07T03:58:38.184Z,0.00
2018-11-07T03:59:38.175Z,0.00
2018-11-07T04:00:38.166Z,0.00
2018-11-07T04:01:38.215Z,0.00
2018-11-07T04:02:38.145Z,0.00
2018-11-07T04:03:38.141Z,0.00
2018-11-07T04:04:38.126Z,0.00
2018-11-07T04:05:38.120Z,0.00
2018-11-07T04:06:38.105Z,0.00
2018-11-07T04:07:38.097Z,0.00
2018-11-07T04:08:38.091Z,0.00
2018-11-07T04:09:38.079Z,0.00
2018-11-07T04:10:38.067Z,0.00
2018-11-07T04:11:38.058Z,0.00
2018-11-07T04:12:38.047Z,0.00
2018-11-07T04:13:38.043Z,0.00
2018-11-07T04:14:38.027Z,0.00
2018-11-07T04:15:38.018Z,0.00
2018-11-07T04:16:38.008Z,0.00
2018-11-07T04:17:37.999Z,0.00
2018-11-07T04:18:37.987Z,0.00
2018-11-07T04:19:37.982Z,0.00
2018-11-07T04:20:37.968Z,0.00
2018-11-07T04:21:37.958Z,0.00
2018-11-07T04:22:37.950Z,0.00
2018-11-07T04:23:37.944Z,0.00
2018-11-07T04:24:37.929Z,0.00
2018-11-07T04:25:37.919Z,0.00
2018-11-07T04:26:37.909Z,0.00
2018-11-07T04:27:37.898Z,0.00
2018-11-07T04:28:37.888Z,0.00
2018-11-07T04:29:37.879Z,0.00
2018-11-07T04:30:37.867Z,0.00
2018-11-07T04:31:37.858Z,0.00
2018-11-07T04:32:37.848Z,0.00
2018-11-07T04:33:37.842Z,0.00
2018-11-07T04:34:37.826Z,0.00
2018-11-07T04:35:37.816Z,0.00
2018-11-07T04:36:37.806Z,0.00
2018-11-07T04:37:37.799Z,0.00
2018-11-07T04:38:37.790Z,0.00
2018-11-07T04:39:37.776Z,0.00
2018-11-07T04:40:37.766Z,0.00
2018-11-07T04:41:37.755Z,0.00
2018-11-07T04:42:37.745Z,0.00
2018-11-07T04:43:37.735Z,0.00
2018-11-07T04:44:37.725Z,0.00
2018-11-07T04:45:37.715Z,0.00
2018-11-07T04:46:37.704Z,0.00
2018-11-07T04:47:37.699Z,0.00
2018-11-07T04:48:37.684Z,0.00
2018-11-07T04:49:37.676Z,0.00
2018-11-07T04:50:37.664Z,0.00
2018-11-07T04:51:37.653Z,0.00
2018-11-07T04:52:37.649Z,0.00
2018-11-07T04:53:37.634Z,0.00
2018-11-07T04:54:37.624Z,0.00
2018-11-07T04:55:37.613Z,0.00
2018-11-07T04:56:37.603Z,0.00
2018-11-07T04:57:37.619Z,0.00
2018-11-07T04:58:37.582Z,0.00
2018-11-07T04:59:37.573Z,0.00
2018-11-07T05:00:37.764Z,0.00
2018-11-07T05:01:37.552Z,0.00
2018-11-07T05:02:37.547Z,0.00
2018-11-07T05:03:37.536Z,0.00
2018-11-07T05:04:37.523Z,0.00
2018-11-07T05:05:37.513Z,0.00
2018-11-07T05:06:37.503Z,0.00
2018-11-07T05:07:37.490Z,0.00
2018-11-07T05:08:37.542Z,0.00
2018-11-07T05:09:37.472Z,0.00
2018-11-07T05:10:37.461Z,0.00
2018-11-07T05:11:37.451Z,0.00
2018-11-07T05:12:37.442Z,0.00
2018-11-07T05:13:37.635Z,0.00
2018-11-07T05:14:37.425Z,0.00
2018-11-07T05:15:37.410Z,0.00
2018-11-07T05:16:37.400Z,0.00
2018-11-07T05:17:37.390Z,0.00
2018-11-07T05:18:37.380Z,0.00
2018-11-07T05:19:37.405Z,0.00
2018-11-07T05:20:37.358Z,0.00
2018-11-07T05:21:37.352Z,0.00
2018-11-07T05:22:37.591Z,0.00
2018-11-07T05:23:37.328Z,0.00
2018-11-07T05:24:37.319Z,0.00
2018-11-07T05:25:37.308Z,0.00
2018-11-07T05:26:37.297Z,0.00
2018-11-07T05:27:37.287Z,0.00
2018-11-07T05:28:37.277Z,0.00
2018-11-07T05:29:37.267Z,0.00
2018-11-07T05:30:37.256Z,0.00
2018-11-07T05:31:37.246Z,0.00
2018-11-07T05:32:37.236Z,0.00
2018-11-07T05:33:37.229Z,0.00
2018-11-07T05:34:37.214Z,0.00
2018-11-07T05:35:37.207Z,0.00
2018-11-07T05:36:37.195Z,0.00
2018-11-07T05:37:37.185Z,0.00
2018-11-07T05:38:37.175Z,0.00
2018-11-07T05:39:37.168Z,0.00
2018-11-07T05:40:37.154Z,0.00
2018-11-07T05:41:37.149Z,0.00
2018-11-07T05:42:37.134Z,0.00
2018-11-07T05:43:37.124Z,0.00
2018-11-07T05:44:37.113Z,0.00
2018-11-07T05:45:37.104Z,0.00
2018-11-07T05:46:37.092Z,0.00
2018-11-07T05:47:37.083Z,0.00
2018-11-07T05:48:37.072Z,0.00
2018-11-07T05:49:37.063Z,0.00
2018-11-07T05:50:37.052Z,0.00
2018-11-07T05:51:37.044Z,0.00
2018-11-07T05:52:37.032Z,0.00
2018-11-07T05:53:37.022Z,0.00
2018-11-07T05:54:37.011Z,0.00
2018-11-07T05:55:37.001Z,0.00
2018-11-07T05:56:36.992Z,0.00
2018-11-07T05:57:36.981Z,0.00
2018-11-07T05:58:36.970Z,0.00
2018-11-07T05:59:36.963Z,0.00
2018-11-07T06:00:36.951Z,0.00
2018-11-07T06:01:36.941Z,0.00
2018-11-07T06:02:36.930Z,0.00
2018-11-07T06:03:36.921Z,0.00
2018-11-07T06:04:36.912Z,4.00
2018-11-07T06:05:36.901Z,4.00
2018-11-07T06:06:36.888Z,0.00
2018-11-07T06:07:36.878Z,0.00
2018-11-07T06:08:36.869Z,4.00
2018-11-07T06:09:36.859Z,4.00
2018-11-07T06:10:36.848Z,4.00
2018-11-07T06:11:36.883Z,4.00
2018-11-07T06:12:36.827Z,8.00
2018-11-07T06:13:36.818Z,8.00
2018-11-07T06:14:36.811Z,8.00
2018-11-07T06:15:36.798Z,12.00
2018-11-07T06:16:36.792Z,12.00
2018-11-07T06:17:36.779Z,16.00
2018-11-07T06:18:36.771Z,16.00
2018-11-07T06:19:36.756Z,20.00
2018-11-07T06:20:36.747Z,28.00
2018-11-07T06:21:36.740Z,32.00
2018-11-07T06:22:36.726Z,32.00
2018-11-07T06:23:36.724Z,40.00
2018-11-07T06:24:36.755Z,44.00
2018-11-07T06:25:36.696Z,52.00
2018-11-07T06:26:36.684Z,56.00
2018-11-07T06:27:36.678Z,64.00
2018-11-07T06:28:36.665Z,72.00
2018-11-07T06:29:36.655Z,84.00
2018-11-07T06:30:36.644Z,92.00
2018-11-07T06:31:36.636Z,108.00
2018-11-07T06:32:36.624Z,120.00
2018-11-07T06:33:36.621Z,136.00
2018-11-07T06:34:36.603Z,152.00
2018-11-07T06:35:36.594Z,172.00
2018-11-07T06:36:36.587Z,188.00
2018-11-07T06:37:36.573Z,208.00
2018-11-07T06:38:36.562Z,228.00
2018-11-07T06:39:36.552Z,252.00
2018-11-07T06:40:36.543Z,280.00
2018-11-07T06:41:36.532Z,304.00
2018-11-07T06:42:36.522Z,328.00
2018-11-07T06:43:36.718Z,352.00
2018-11-07T06:44:36.511Z,376.00
2018-11-07T06:45:36.491Z,404.00
2018-11-07T06:46:36.480Z,424.00
2018-11-07T06:47:36.475Z,444.00
2018-11-07T06:48:36.467Z,456.00
2018-11-07T06:49:36.455Z,468.00
2018-11-07T06:50:36.439Z,480.00
2018-11-07T06:51:36.429Z,496.00
2018-11-07T06:52:36.421Z,512.00
2018-11-07T06:53:36.413Z,536.00
2018-11-07T06:54:36.398Z,556.00
2018-11-07T06:55:36.425Z,588.00
2018-11-07T06:56:36.384Z,620.00
2018-11-07T06:57:36.375Z,656.00
2018-11-07T06:58:36.363Z,696.00
2018-11-07T06:59:36.353Z,740.00
2018-11-07T07:00:36.338Z,764.00
2018-11-07T07:01:36.329Z,792.00
2018-11-07T07:02:36.319Z,824.00
2018-11-07T07:03:36.309Z,864.00
2018-11-07T07:04:36.300Z,916.00
2018-11-07T07:05:36.288Z,972.00
2018-11-07T07:06:36.280Z,1036.00
2018-11-07T07:07:36.472Z,1092.00
2018-11-07T07:08:36.256Z,1136.00
2018-11-07T07:09:36.247Z,1200.00
2018-11-07T07:10:36.236Z,1288.00
2018-11-07T07:11:36.227Z,1368.00
2018-11-07T07:12:36.222Z,1436.00
2018-11-07T07:13:36.210Z,1488.00
2018-11-07T07:14:36.196Z,1552.00
2018-11-07T07:15:36.188Z,1636.00
2018-11-07T07:16:36.176Z,1712.00
2018-11-07T07:17:36.243Z,1764.00
2018-11-07T07:18:36.157Z,1796.00
2018-11-07T07:19:36.146Z,1800.00
2018-11-07T07:20:36.339Z,1812.00
2018-11-07T07:21:36.126Z,1836.00
2018-11-07T07:22:36.115Z,1860.00
2018-11-07T07:23:36.357Z,1872.00
2018-11-07T07:24:36.099Z,1892.00
2018-11-07T07:26:36.077Z,1956.00
2018-11-07T07:27:36.068Z,1992.00
2018-11-07T07:28:36.059Z,2012.00
2018-11-07T07:29:36.052Z,2008.00
2018-11-07T07:30:36.082Z,2012.00
2018-11-07T07:31:36.231Z,2016.00
2018-11-07T07:32:36.024Z,2016.00
2018-11-07T07:33:36.069Z,2000.00
2018-11-07T07:34:36.202Z,2020.00
2018-11-07T07:35:35.994Z,2020.00
2018-11-07T07:36:35.980Z,2028.00
2018-11-07T07:44:16.157Z,1272.00
2018-11-07T07:45:16.349Z,1252.00
2018-11-07T07:46:16.149Z,1268.00
2018-11-07T07:47:16.130Z,1300.00
2018-11-07T07:48:16.119Z,1356.00
2018-11-07T07:49:16.128Z,1392.00
2018-11-07T07:50:16.099Z,1404.00
2018-11-07T07:51:16.094Z,1640.00
2018-11-07T08:14:34.457Z,4376.00
2018-11-07T08:15:34.046Z,4660.00
2018-11-07T08:16:34.036Z,4828.00
2018-11-07T08:17:34.031Z,4940.00
2018-11-07T08:18:34.019Z,4992.00
2018-11-07T08:19:34.009Z,4844.00
2018-11-07T08:20:34.002Z,4696.00
2018-11-07T08:21:33.996Z,4444.00
2018-11-07T08:22:33.982Z,4204.00
2018-11-07T08:23:33.977Z,3836.00
2018-11-07T08:24:33.964Z,3572.00
2018-11-07T08:25:33.957Z,3384.00
2018-11-07T08:26:34.146Z,3292.00
2018-11-07T08:27:33.935Z,3220.00
2018-11-07T08:28:33.927Z,3140.00
2018-11-07T08:29:33.923Z,3072.00
2018-11-07T08:30:33.909Z,2980.00
2018-11-07T08:31:33.903Z,2932.00
2018-11-07T08:32:33.889Z,2932.00
2018-11-07T08:33:33.885Z,3040.00
2018-11-07T08:34:33.872Z,3412.00
2018-11-07T08:35:33.867Z,3532.00
2018-11-07T08:36:33.860Z,3524.00
2018-11-07T08:37:33.848Z,3520.00
2018-11-07T08:38:33.836Z,3576.00
2018-11-07T08:39:33.831Z,3480.00
2018-11-07T08:40:33.819Z,3668.00
2018-11-07T08:41:33.809Z,3860.00
2018-11-07T08:42:33.801Z,4000.00
2018-11-07T08:43:33.795Z,4056.00
2018-11-07T08:44:33.787Z,4044.00
2018-11-07T08:45:33.775Z,4188.00
2018-11-07T08:46:33.765Z,4004.00
2018-11-07T08:47:33.757Z,4108.00
2018-11-07T08:48:33.749Z,4320.00
2018-11-07T08:49:33.742Z,4412.00
2018-11-07T08:50:33.731Z,4436.00
2018-11-07T08:51:33.725Z,3936.00
2018-11-07T08:52:33.722Z,3476.00
2018-11-07T08:53:33.706Z,3460.00
2018-11-07T08:54:33.698Z,3548.00
2018-11-07T08:55:33.689Z,3544.00
2018-11-07T08:56:33.681Z,3868.00
2018-11-07T08:57:33.671Z,3640.00
2018-11-07T08:58:33.664Z,4040.00
2018-11-07T08:59:33.654Z,4212.00
2018-11-07T09:00:33.649Z,4868.00
2018-11-07T09:02:33.630Z,5628.00
2018-11-07T09:03:33.621Z,5772.00
2018-11-07T09:04:33.613Z,5744.00
2018-11-07T09:05:33.608Z,5408.00
2018-11-07T09:06:33.597Z,5684.00
2018-11-07T09:07:33.589Z,6756.00
2018-11-07T09:08:33.581Z,7292.00
2018-11-07T09:09:33.574Z,7908.00
2018-11-07T09:10:33.564Z,8072.00
2018-11-07T09:11:33.557Z,8436.00
2018-11-07T09:12:33.550Z,7976.00
2018-11-07T09:13:33.542Z,8208.00
2018-11-07T09:14:33.538Z,9228.00
2018-11-07T09:15:33.729Z,9436.00
2018-11-07T09:16:33.520Z,9604.00
2018-11-07T09:17:33.513Z,9468.00
2018-11-07T09:18:33.507Z,9528.00
2018-11-07T09:19:33.503Z,8552.00
2018-11-07T09:20:33.496Z,4772.00
2018-11-07T09:21:33.496Z,4488.00
2018-11-07T09:22:33.491Z,3764.00
2018-11-07T09:23:33.486Z,4344.00
2018-11-07T09:24:33.524Z,6536.00
2018-11-07T09:25:33.472Z,5268.00
2018-11-07T09:26:33.467Z,6492.00
2018-11-07T09:27:33.462Z,6504.00
2018-11-07T09:28:33.457Z,7304.00
2018-11-07T09:29:33.454Z,6120.00
2018-11-07T09:30:33.451Z,8732.00
2018-11-07T09:31:33.444Z,7196.00
2018-11-07T09:32:33.444Z,7464.00
2018-11-07T09:33:33.434Z,8436.00
2018-11-07T09:34:33.430Z,8192.00
2018-11-07T09:35:33.427Z,4588.00
2018-11-07T09:36:33.424Z,3248.00
2018-11-07T09:37:33.423Z,3836.00
2018-11-07T09:38:33.417Z,3028.00
2018-11-07T09:39:33.434Z,3080.00
2018-11-07T09:40:33.410Z,3236.00
2018-11-07T09:41:33.409Z,3184.00
2018-11-07T09:42:33.400Z,4340.00
2018-11-07T09:43:33.399Z,3596.00
2018-11-07T09:44:33.394Z,3464.00
2018-11-07T09:45:33.388Z,3404.00
2018-11-07T09:46:33.383Z,3364.00
2018-11-07T09:47:33.439Z,3388.00
2018-11-07T09:48:33.371Z,3572.00
2018-11-07T09:49:33.374Z,3884.00
2018-11-07T09:50:33.360Z,3912.00
2018-11-07T09:51:33.356Z,3724.00
2018-11-07T09:52:33.350Z,3704.00
2018-11-07T09:53:33.371Z,3704.00
2018-11-07T09:54:33.338Z,3552.00
2018-11-07T09:55:33.330Z,3432.00
2018-11-07T09:56:33.326Z,3480.00
2018-11-07T09:57:33.318Z,3448.00
2018-11-07T09:58:33.312Z,3356.00
2018-11-07T09:59:33.360Z,3296.00
2018-11-07T10:00:33.300Z,3340.00
2018-11-07T10:01:33.293Z,3476.00
2018-11-07T10:02:33.295Z,3644.00
2018-11-07T10:03:33.280Z,3816.00
2018-11-07T10:04:33.274Z,3952.00
2018-11-07T10:05:33.347Z,4200.00
2018-11-07T10:06:33.275Z,4580.00
2018-11-07T10:07:33.261Z,4948.00
2018-11-07T10:08:33.247Z,5348.00
2018-11-07T10:09:33.240Z,5648.00
2018-11-07T10:10:33.438Z,5720.00
2018-11-07T10:11:33.235Z,5632.00
2018-11-07T10:12:33.305Z,5544.00
2018-11-07T10:13:33.418Z,5436.00
2018-11-07T10:14:33.206Z,5396.00
2018-11-07T10:15:33.199Z,5368.00
2018-11-07T10:16:33.193Z,5168.00
2018-11-07T10:17:33.190Z,5088.00
2018-11-07T10:18:33.180Z,5064.00
2018-11-07T10:19:33.172Z,4992.00
2018-11-07T10:20:33.225Z,4960.00
2018-11-07T10:21:33.158Z,4972.00
2018-11-07T10:22:33.160Z,5048.00
2018-11-07T10:23:33.146Z,5204.00
2018-11-07T10:24:33.137Z,5460.00
2018-11-07T10:25:33.130Z,5784.00
2018-11-07T10:26:33.138Z,6200.00
2018-11-07T10:27:33.601Z,6580.00
2018-11-07T10:28:33.338Z,6764.00
2018-11-07T10:29:33.268Z,6916.00
2018-11-07T10:30:33.167Z,7008.00
2018-11-07T10:31:33.088Z,6948.00
2018-11-07T10:32:33.085Z,6584.00
2018-11-07T10:33:33.080Z,6344.00
2018-11-07T10:34:33.084Z,6076.00
2018-11-07T10:35:33.058Z,5752.00
2018-11-07T10:36:33.059Z,5364.00
2018-11-07T10:37:33.041Z,4956.00
2018-11-07T10:38:33.163Z,4812.00
2018-11-07T10:39:33.032Z,4556.00
2018-11-07T10:40:33.028Z,4428.00
2018-11-07T10:41:33.014Z,4312.00
2018-11-07T10:42:33.011Z,4240.00
2018-11-07T10:43:33.000Z,4168.00
2018-11-07T10:44:33.090Z,4100.00
2018-11-07T10:45:32.984Z,4136.00
2018-11-07T10:46:32.980Z,4256.00
2018-11-07T10:47:32.969Z,4336.00
2018-11-07T10:48:32.962Z,4428.00
2018-11-07T10:49:32.953Z,4480.00
2018-11-07T10:50:32.948Z,4540.00
2018-11-07T10:51:32.938Z,4600.00
2018-11-07T10:52:32.931Z,4684.00
2018-11-07T10:53:32.922Z,4720.00
2018-11-07T10:54:32.919Z,4752.00
2018-11-07T10:55:32.913Z,4784.00
2018-11-07T10:56:32.909Z,4852.00
2018-11-07T10:57:32.893Z,4964.00
2018-11-07T10:58:32.889Z,5064.00
2018-11-07T10:59:33.083Z,4980.00
2018-11-07T11:00:32.871Z,4924.00
2018-11-07T11:01:32.862Z,4940.00
2018-11-07T11:02:32.856Z,4912.00
2018-11-07T11:03:32.852Z,4904.00
2018-11-07T11:04:32.843Z,4880.00
2018-11-07T11:05:33.236Z,4964.00
2018-11-07T11:06:32.823Z,5104.00
2018-11-07T11:07:32.816Z,5236.00
2018-11-07T11:08:32.812Z,5372.00
2018-11-07T11:09:32.800Z,5576.00
2018-11-07T11:10:32.793Z,5740.00
2018-11-07T11:11:32.791Z,5784.00
2018-11-07T11:12:32.781Z,5668.00
2018-11-07T11:13:32.770Z,5520.00
2018-11-07T11:14:32.768Z,5400.00
2018-11-07T11:15:32.758Z,5212.00
2018-11-07T11:16:32.950Z,5012.00
2018-11-07T11:17:32.874Z,4808.00
2018-11-07T11:18:32.732Z,4608.00
2018-11-07T11:19:32.725Z,4472.00
2018-11-07T11:20:32.717Z,4376.00
2018-11-07T11:21:32.914Z,4344.00
2018-11-07T11:22:32.701Z,4392.00
2018-11-07T11:23:32.698Z,4444.00
2018-11-07T11:24:32.686Z,4456.00
2018-11-07T11:25:32.680Z,4456.00
2018-11-07T11:26:32.678Z,4444.00
2018-11-07T11:27:32.777Z,4424.00
2018-11-07T11:28:32.656Z,4448.00
2018-11-07T11:29:32.648Z,4448.00
2018-11-07T11:30:32.646Z,4516.00
2018-11-07T11:31:32.650Z,4664.00
2018-11-07T11:32:32.626Z,4816.00
2018-11-07T11:33:32.618Z,4944.00
2018-11-07T11:34:32.744Z,4976.00
2018-11-07T11:35:32.603Z,4844.00
2018-11-07T11:36:32.596Z,4576.00
2018-11-07T11:37:32.589Z,4256.00
2018-11-07T11:38:32.584Z,3984.00
2018-11-07T11:39:32.577Z,3732.00
2018-11-07T11:40:32.620Z,3588.00
2018-11-07T11:41:32.559Z,3504.00
2018-11-07T11:42:32.561Z,3476.00
2018-11-07T11:43:32.549Z,3500.00
2018-11-07T11:44:32.539Z,3492.00
2018-11-07T11:45:32.529Z,3480.00
2018-11-07T11:46:32.522Z,3408.00
2018-11-07T11:47:32.515Z,3284.00
2018-11-07T11:48:32.709Z,3156.00
2018-11-07T11:49:32.499Z,3076.00
2018-11-07T11:50:32.494Z,3048.00
2018-11-07T11:51:32.491Z,3048.00
2018-11-07T11:52:32.480Z,3116.00
2018-11-07T11:53:32.472Z,3224.00
2018-11-07T11:55:32.456Z,3440.00
2018-11-07T11:56:32.449Z,3504.00
2018-11-07T11:57:32.438Z,3512.00
2018-11-07T11:58:32.430Z,3580.00
2018-11-07T11:59:32.473Z,3628.00
2018-11-07T12:00:32.447Z,3764.00
2018-11-07T12:01:32.407Z,3896.00
2018-11-07T12:02:32.606Z,3980.00
2018-11-07T12:03:32.393Z,4040.00
2018-11-07T12:04:32.384Z,4124.00
2018-11-07T12:05:32.381Z,4276.00
2018-11-07T12:06:32.433Z,4452.00
2018-11-07T12:07:32.364Z,4628.00
2018-11-07T12:08:32.597Z,4844.00
2018-11-07T12:09:32.344Z,4936.00
2018-11-07T12:10:32.340Z,4936.00
2018-11-07T12:11:32.330Z,4772.00
2018-11-07T12:12:32.330Z,4592.00
2018-11-07T12:13:32.481Z,4428.00
2018-11-07T12:14:32.307Z,4272.00
2018-11-07T12:15:32.353Z,4224.00
2018-11-07T12:16:32.298Z,4292.00
2018-11-07T12:17:32.340Z,4220.00
2018-11-07T12:18:32.285Z,4196.00
2018-11-07T12:19:32.275Z,4176.00
2018-11-07T12:20:32.263Z,4132.00
2018-11-07T12:21:32.257Z,4108.00
2018-11-07T12:22:32.246Z,4076.00
2018-11-07T12:23:32.241Z,3972.00
2018-11-07T12:24:32.232Z,3824.00
2018-11-07T12:25:32.228Z,3664.00
2018-11-07T12:26:32.220Z,3508.00
2018-11-07T12:27:32.211Z,3484.00
2018-11-07T12:28:32.201Z,3432.00
2018-11-07T12:29:32.194Z,3364.00
2018-11-07T12:30:32.188Z,3320.00
2018-11-07T12:31:32.181Z,3220.00
2018-11-07T12:32:32.170Z,3032.00
2018-11-07T12:33:32.365Z,2800.00
2018-11-07T12:34:32.158Z,2560.00
2018-11-07T12:35:32.147Z,2404.00
2018-11-07T12:36:32.201Z,2276.00
2018-11-07T12:37:32.136Z,2232.00
2018-11-07T12:38:32.123Z,2252.00
2018-11-07T12:39:32.118Z,2300.00
2018-11-07T12:40:32.109Z,2356.00
2018-11-07T12:41:32.103Z,2424.00
2018-11-07T12:42:32.094Z,2460.00
2018-11-07T12:43:32.085Z,2412.00
2018-11-07T12:44:32.079Z,2348.00
2018-11-07T12:45:32.069Z,2284.00
2018-11-07T12:46:32.066Z,2224.00
2018-11-07T12:47:32.054Z,2168.00
2018-11-07T12:48:32.046Z,2156.00
2018-11-07T12:49:32.094Z,2136.00
2018-11-07T12:50:32.103Z,2152.00
2018-11-07T12:51:32.030Z,2184.00
2018-11-07T12:52:32.215Z,2248.00
2018-11-07T12:53:32.006Z,2288.00
2018-11-07T12:54:31.999Z,2312.00
2018-11-07T12:55:31.990Z,2292.00
2018-11-07T12:56:31.983Z,2240.00
2018-11-07T12:57:32.012Z,2140.00
2018-11-07T12:58:31.966Z,2028.00
2018-11-07T12:59:31.958Z,1928.00
2018-11-07T13:00:31.953Z,1884.00
2018-11-07T13:01:31.942Z,1800.00
2018-11-07T13:03:31.927Z,1656.00
2018-11-07T13:04:31.954Z,1640.00
2018-11-07T13:05:31.911Z,1596.00
2018-11-07T13:06:31.902Z,1592.00
2018-11-07T13:07:31.896Z,1568.00
2018-11-07T13:08:31.887Z,1556.00
2018-11-07T13:09:31.878Z,1556.00
2018-11-07T13:10:31.872Z,1552.00
2018-11-07T13:11:31.997Z,1572.00
2018-11-07T13:12:31.860Z,1604.00
2018-11-07T13:13:31.847Z,1628.00
2018-11-07T13:14:31.849Z,1604.00